Terminal Aerodrome Forecast
Issued by NWS

Home | Current Version | Previous Version | Text Only | Print | Product List | Glossary On
Versions: 1 2 3 4 5 6 7 8 9 10 11 12 13 14 15 16 17 18
000
FTUS46 KSEW 281739
TAFBFI
TAF
KBFI 281739Z 2818/2918 17009KT P6SM -SHRA BKN023 BKN030 OVC040
     FM282200 18012G20KT P6SM VCSH BKN035 OVC050
     FM290100 17007KT P6SM VCSH BKN035 BKN050
     FM290600 17006KT P6SM VCSH BKN030 OVC045
     FM291100 17005KT P6SM VCSH OVC019=

USA.gov is the U.S. government's official web portal to all federal, state and local government web resources and services.